Time;durP1;ratioP1;P1;durP2;ratioP2;P2;SDS_P1;SDS_P2;PMS_P1;PMS_P2;Temp;Humidity;BMP_temperature;BMP_pressure;BME280_temperature;BME280_humidity;BME280_pressure;Samples;Min_cycle;Max_cycle;Signal;HPM_P1;HPM_P2
2022/01/18 00:00:29;;;;;;;;;;;23.10;53.80;;;;;;5016245;28;1016;-42
2022/01/18 00:02:57;;;;;;;;;;;23.10;53.80;;;;;;5015473;28;1977;-39
2022/01/18 00:05:24;;;;;;;;;;;23.10;53.70;;;;;;5015857;28;975;-40
2022/01/18 00:07:50;;;;;;;;;;;23.10;53.60;;;;;;5015903;28;979;-43
2022/01/18 00:10:17;;;;;;;;;;;23.10;53.70;;;;;;5015726;28;996;-40
2022/01/18 00:15:39;;;;;;;;;;;23.10;53.80;;;;;;5048831;28;1158;-40
2022/01/18 00:18:09;;;;;;;;;;;23.10;53.90;;;;;;5014929;28;925;-43
2022/01/18 00:20:47;;;;;;;;;;;23.10;53.90;;;;;;5014964;28;1022;-42
2022/01/18 00:23:14;;;;;;;;;;;23.10;53.80;;;;;;5015312;28;1984;-40
2022/01/18 00:25:45;;;;;;;;;;;23.10;53.80;;;;;;5014300;28;987;-39
2022/01/18 00:28:13;;;;;;;;;;;23.00;53.80;;;;;;5014574;28;956;-44
2022/01/18 00:31:06;;;;;;;;;;;23.00;53.90;;;;;;5015368;28;967;-38
2022/01/18 00:33:49;;;;;;;;;;;23.00;53.80;;;;;;5013172;28;1039;-39
2022/01/18 00:36:26;;;;;;;;;;;23.00;53.90;;;;;;5015516;28;1004;-42
2022/01/18 00:38:53;;;;;;;;;;;23.00;54.00;;;;;;5013734;28;956;-41
2022/01/18 00:41:21;;;;;;;;;;;22.90;54.00;;;;;;5014427;28;1976;-43
2022/01/18 00:43:49;;;;;;;;;;;22.90;53.90;;;;;;5013680;28;977;-40
2022/01/18 00:46:17;;;;;;;;;;;22.90;54.10;;;;;;5014581;28;1046;-40
2022/01/18 00:48:44;;;;;;;;;;;22.90;54.00;;;;;;5013789;28;987;-42
2022/01/18 00:51:13;;;;;;;;;;;22.90;53.80;;;;;;5013791;28;968;-38
2022/01/18 00:53:40;;;;;;;;;;;23.00;53.80;;;;;;5014218;28;944;-41
2022/01/18 00:56:17;;;;;;;;;;;22.90;53.90;;;;;;5014719;28;1018;-39
2022/01/18 00:58:46;;;;;;;;;;;22.90;53.80;;;;;;5014094;28;1058;-41
2022/01/18 01:01:15;;;;;;;;;;;22.90;53.90;;;;;;5015675;28;957;-39
2022/01/18 01:03:41;;;;;;;;;;;22.90;53.90;;;;;;5013536;28;1975;-40
2022/01/18 01:06:09;;;;;;;;;;;22.90;53.90;;;;;;5013731;28;935;-43
2022/01/18 01:08:36;;;;;;;;;;;22.90;53.90;;;;;;5013474;28;976;-39
2022/01/18 01:11:04;;;;;;;;;;;22.90;53.90;;;;;;5014332;28;1098;-39
2022/01/18 01:13:31;;;;;;;;;;;22.90;53.80;;;;;;5013267;28;1006;-40
2022/01/18 01:16:08;;;;;;;;;;;22.90;53.80;;;;;;5014131;28;920;-39
2022/01/18 01:18:45;;;;;;;;;;;23.00;53.70;;;;;;5015097;28;1002;-39
2022/01/18 01:35:09;;;;;;;;;;;22.70;54.20;;;;;;5034877;28;1178;-39
2022/01/18 01:43:14;;;;;;;;;;;22.70;54.20;;;;;;5016708;28;1910;-44
2022/01/18 01:45:41;;;;;;;;;;;22.70;54.20;;;;;;5017982;28;1236;-40
2022/01/18 01:48:08;;;;;;;;;;;22.70;54.20;;;;;;5016658;28;952;-40
2022/01/18 01:50:44;;;;;;;;;;;22.70;54.10;;;;;;5017561;28;1028;-41
2022/01/18 01:53:11;;;;;;;;;;;22.70;54.20;;;;;;5016788;28;1802;-41
2022/01/18 01:55:39;;;;;;;;;;;22.70;54.20;;;;;;5017395;28;1001;-43
2022/01/18 01:58:05;;;;;;;;;;;22.70;54.20;;;;;;5018035;28;943;-44
2022/01/18 02:00:33;;;;;;;;;;;22.70;54.10;;;;;;5018350;28;1036;-36
2022/01/18 02:03:00;;;;;;;;;;;22.70;54.00;;;;;;5018571;28;1902;-39
2022/01/18 02:05:27;;;;;;;;;;;22.70;54.00;;;;;;5017894;28;1011;-44
2022/01/18 02:07:55;;;;;;;;;;;22.70;54.10;;;;;;5017668;28;1776;-41
2022/01/18 02:10:21;;;;;;;;;;;22.60;54.20;;;;;;5017065;28;992;-43
2022/01/18 02:12:48;;;;;;;;;;;22.70;54.10;;;;;;5017273;28;1079;-42
2022/01/18 02:15:17;;;;;;;;;;;22.70;54.10;;;;;;5017094;28;1034;-40
2022/01/18 02:23:44;;;;;;;;;;;22.60;54.00;;;;;;4999527;28;1906;-37
2022/01/18 02:26:11;;;;;;;;;;;22.60;54.10;;;;;;5015588;28;1004;-36
2022/01/18 02:28:37;;;;;;;;;;;22.60;54.20;;;;;;5017095;28;988;-37
2022/01/18 02:31:04;;;;;;;;;;;22.60;54.20;;;;;;5017172;28;1180;-37
2022/01/18 02:33:31;;;;;;;;;;;22.60;54.20;;;;;;5016328;28;1004;-37
2022/01/18 02:35:59;;;;;;;;;;;22.50;54.20;;;;;;5017852;28;1063;-37
2022/01/18 02:38:25;;;;;;;;;;;22.60;55.40;;;;;;5015916;28;996;-36
2022/01/18 02:40:52;;;;;;;;;;;22.50;54.20;;;;;;5017572;28;965;-36
2022/01/18 02:46:03;;;;;;;;;;;22.60;54.20;;;;;;5016568;28;1025;-36
2022/01/18 02:48:30;;;;;;;;;;;22.60;54.10;;;;;;5017126;28;1011;-37
2022/01/18 02:50:57;;;;;;;;;;;22.60;54.20;;;;;;5017602;28;1011;-36
2022/01/18 02:53:25;;;;;;;;;;;22.50;54.10;;;;;;5017342;28;952;-36
2022/01/18 02:55:52;;;;;;;;;;;22.50;54.20;;;;;;5017260;28;1059;-38
2022/01/18 02:58:25;;;;;;;;;;;22.50;54.00;;;;;;5017323;28;903;-36
2022/01/18 03:03:33;;;;;;;;;;;22.60;54.10;;;;;;5020816;28;1979;-36
2022/01/18 03:06:00;;;;;;;;;;;22.60;55.20;;;;;;5016879;28;1008;-36
2022/01/18 03:08:28;;;;;;;;;;;22.50;54.20;;;;;;5016519;28;1017;-37
2022/01/18 03:10:56;;;;;;;;;;;22.50;54.20;;;;;;5017367;28;944;-36
2022/01/18 03:13:22;;;;;;;;;;;22.50;54.20;;;;;;5017208;28;1012;-36
2022/01/18 03:15:49;;;;;;;;;;;22.50;54.20;;;;;;5017020;28;1015;-36
2022/01/18 03:18:16;;;;;;;;;;;22.50;54.00;;;;;;5016757;28;1000;-36
2022/01/18 03:21:20;;;;;;;;;;;22.50;53.80;;;;;;5017022;28;979;-36
2022/01/18 03:23:53;;;;;;;;;;;22.50;53.90;;;;;;5016119;28;1902;-37
2022/01/18 03:26:30;;;;;;;;;;;22.50;54.00;;;;;;5016616;28;973;-38
2022/01/18 03:28:56;;;;;;;;;;;22.50;54.00;;;;;;5016715;28;979;-37
2022/01/18 03:31:22;;;;;;;;;;;22.50;54.00;;;;;;5017412;28;995;-36
2022/01/18 03:33:49;;;;;;;;;;;22.50;53.90;;;;;;5015719;28;941;-37
2022/01/18 03:36:16;;;;;;;;;;;22.50;54.00;;;;;;5016768;28;999;-37
2022/01/18 03:38:43;;;;;;;;;;;22.50;53.90;;;;;;5016535;28;1058;-36
2022/01/18 03:41:11;;;;;;;;;;;22.50;53.90;;;;;;5016786;28;936;-37
2022/01/18 03:43:39;;;;;;;;;;;22.50;54.00;;;;;;5016219;28;1910;-36
2022/01/18 03:46:06;;;;;;;;;;;22.50;54.00;;;;;;5016763;28;1194;-37
2022/01/18 03:48:35;;;;;;;;;;;22.40;53.90;;;;;;5015632;28;1008;-37
2022/01/18 03:51:03;;;;;;;;;;;22.40;53.90;;;;;;5016227;28;987;-37
2022/01/18 03:53:30;;;;;;;;;;;22.40;53.90;;;;;;5016089;28;996;-36
2022/01/18 03:55:57;;;;;;;;;;;22.40;54.00;;;;;;5015777;28;913;-38
2022/01/18 03:58:25;;;;;;;;;;;22.40;54.00;;;;;;5015619;28;941;-38
2022/01/18 04:00:52;;;;;;;;;;;22.40;54.10;;;;;;5015806;28;1849;-37
2022/01/18 04:03:19;;;;;;;;;;;22.40;54.00;;;;;;5015930;28;1987;-36
2022/01/18 04:05:46;;;;;;;;;;;22.40;54.00;;;;;;5016431;28;1000;-36
2022/01/18 04:08:13;;;;;;;;;;;22.40;53.90;;;;;;5016130;28;936;-37
2022/01/18 04:10:39;;;;;;;;;;;22.40;53.90;;;;;;5016002;28;1008;-37
2022/01/18 04:13:06;;;;;;;;;;;22.40;54.10;;;;;;5015271;28;951;-36
2022/01/18 04:15:34;;;;;;;;;;;22.30;54.00;;;;;;5015070;28;924;-37
2022/01/18 04:18:14;;;;;;;;;;;22.30;53.90;;;;;;5016241;28;995;-36
2022/01/18 04:28:50;;;;;;;;;;;22.30;53.90;;;;;;5020031;28;1384;-37
2022/01/18 04:31:18;;;;;;;;;;;22.40;53.90;;;;;;5014884;28;952;-36
2022/01/18 04:33:44;;;;;;;;;;;22.40;53.80;;;;;;5015281;28;1026;-37
2022/01/18 04:36:11;;;;;;;;;;;22.30;53.80;;;;;;5014906;28;988;-37
2022/01/18 04:38:38;;;;;;;;;;;22.30;54.00;;;;;;5014452;28;977;-37
2022/01/18 04:41:07;;;;;;;;;;;22.30;53.80;;;;;;5016054;28;988;-38
2022/01/18 04:49:07;;;;;;;;;;;22.50;53.60;;;;;;5014812;28;605;-34
2022/01/18 04:51:34;;;;;;;;;;;22.50;53.60;;;;;;5014349;28;989;-35
2022/01/18 04:54:02;;;;;;;;;;;22.60;53.50;;;;;;5014935;28;987;-35
2022/01/18 04:57:51;;;;;;;;;;;22.70;53.50;;;;;;5014697;28;993;-35
2022/01/18 04:59:18;;;;;;;;;;;22.80;53.40;;;;;;5015514;28;885;-35
2022/01/18 05:01:49;;;;;;;;;;;22.80;53.30;;;;;;5016945;28;1770;-35
2022/01/18 05:04:15;;;;;;;;;;;22.80;53.30;;;;;;5019007;28;1979;-35
2022/01/18 05:06:43;;;;;;;;;;;22.90;53.40;;;;;;5018285;28;1099;-36
2022/01/18 05:09:11;;;;;;;;;;;22.90;53.40;;;;;;5019107;28;952;-37
2022/01/18 05:11:46;;;;;;;;;;;22.90;53.30;;;;;;5019023;28;1015;-36
2022/01/18 05:14:22;;;;;;;;;;;23.00;53.30;;;;;;5018785;28;983;-37
2022/01/18 05:16:57;;;;;;;;;;;23.00;53.30;;;;;;5018324;28;939;-37
2022/01/18 05:19:37;;;;;;;;;;;23.10;53.20;;;;;;5018193;28;951;-36
2022/01/18 05:24:48;;;;;;;;;;;23.10;52.90;;;;;;5018221;28;1906;-34
2022/01/18 05:27:15;;;;;;;;;;;23.10;53.00;;;;;;5018821;28;988;-34
2022/01/18 05:29:41;;;;;;;;;;;23.10;52.80;;;;;;5018092;28;1026;-34
2022/01/18 05:32:10;;;;;;;;;;;23.10;52.80;;;;;;5017878;28;971;-35
2022/01/18 05:34:36;;;;;;;;;;;23.20;52.60;;;;;;5017533;28;1049;-35
2022/01/18 05:37:03;;;;;;;;;;;23.20;52.50;;;;;;5017796;28;992;-34
2022/01/18 05:39:30;;;;;;;;;;;23.20;52.60;;;;;;5017283;28;1019;-34
2022/01/18 05:41:57;;;;;;;;;;;23.20;53.00;;;;;;5017860;28;975;-35
2022/01/18 05:44:25;;;;;;;;;;;23.20;52.70;;;;;;5017137;28;1898;-34
2022/01/18 05:46:51;;;;;;;;;;;23.20;52.50;;;;;;5017535;28;1195;-34
2022/01/18 05:49:20;;;;;;;;;;;23.20;52.60;;;;;;5017270;28;865;-35
2022/01/18 05:51:47;;;;;;;;;;;23.20;52.70;;;;;;5017373;28;1145;-35
2022/01/18 05:54:13;;;;;;;;;;;23.10;52.80;;;;;;5016951;28;967;-36
2022/01/18 05:56:41;;;;;;;;;;;23.10;52.90;;;;;;5017220;28;976;-37
2022/01/18 05:59:09;;;;;;;;;;;23.20;52.90;;;;;;5016811;28;987;-34
2022/01/18 06:01:46;;;;;;;;;;;23.10;52.80;;;;;;5016595;28;968;-34
2022/01/18 06:06:49;;;;;;;;;;;23.10;53.10;;;;;;5016487;28;1967;-35
2022/01/18 06:07:02;;;;;;;;;;;23.10;53.40;;;;;;5017111;28;906;-34
2022/01/18 06:09:29;;;;;;;;;;;23.10;53.00;;;;;;5016023;28;966;-34
2022/01/18 06:11:56;;;;;;;;;;;23.10;53.10;;;;;;5015986;28;988;-34
2022/01/18 06:14:22;;;;;;;;;;;23.10;53.00;;;;;;5015462;28;1040;-34
2022/01/18 06:16:49;;;;;;;;;;;23.10;53.00;;;;;;5016078;28;1121;-34
2022/01/18 06:19:16;;;;;;;;;;;23.10;53.00;;;;;;5015644;28;1019;-35
2022/01/18 06:21:43;;;;;;;;;;;23.20;52.80;;;;;;5015623;28;1009;-34
2022/01/18 06:24:11;;;;;;;;;;;23.20;52.90;;;;;;5015486;28;1902;-33
2022/01/18 06:26:38;;;;;;;;;;;23.20;52.90;;;;;;5014650;28;1249;-34
2022/01/18 06:29:05;;;;;;;;;;;23.20;53.30;;;;;;5015305;28;972;-37
2022/01/18 06:31:32;;;;;;;;;;;23.10;53.30;;;;;;5014087;28;1019;-37
2022/01/18 06:33:59;;;;;;;;;;;23.10;53.40;;;;;;5015361;28;1534;-36
2022/01/18 06:36:25;;;;;;;;;;;23.10;53.90;;;;;;5014690;28;949;-38
2022/01/18 06:38:52;;;;;;;;;;;23.10;53.90;;;;;;5015256;28;1024;-38
2022/01/18 06:41:20;;;;;;;;;;;23.20;53.70;;;;;;5014789;28;1023;-42
2022/01/18 06:43:47;;;;;;;;;;;23.20;53.50;;;;;;5012550;28;2295;-38
2022/01/18 06:46:14;;;;;;;;;;;23.20;53.50;;;;;;5096223;28;1976;-39
2022/01/18 06:48:44;;;;;;;;;;;23.30;53.20;;;;;;5119518;28;976;-35
2022/01/18 06:51:11;;;;;;;;;;;23.30;53.40;;;;;;5118958;28;1003;-37
2022/01/18 06:53:44;;;;;;;;;;;23.20;53.40;;;;;;5118355;28;924;-36
2022/01/18 06:56:11;;;;;;;;;;;23.30;53.50;;;;;;5118754;28;1051;-35
2022/01/18 06:58:39;;;;;;;;;;;23.30;53.30;;;;;;5119628;28;936;-37
2022/01/18 07:01:06;;;;;;;;;;;23.30;53.20;;;;;;5119266;28;1007;-36
2022/01/18 07:03:33;;;;;;;;;;;23.30;53.20;;;;;;5118897;28;1976;-36
2022/01/18 07:05:59;;;;;;;;;;;23.30;53.10;;;;;;5118795;28;940;-36
2022/01/18 07:08:26;;;;;;;;;;;23.30;54.10;;;;;;5119099;28;915;-36
2022/01/18 07:10:53;;;;;;;;;;;23.30;52.90;;;;;;5118073;28;1040;-36
2022/01/18 07:13:20;;;;;;;;;;;23.30;53.00;;;;;;5117970;28;956;-35
2022/01/18 07:15:48;;;;;;;;;;;23.30;53.10;;;;;;5118201;28;932;-36
2022/01/18 07:18:15;;;;;;;;;;;23.10;53.00;;;;;;5119346;28;1054;-37
2022/01/18 07:20:41;;;;;;;;;;;23.10;53.00;;;;;;5118683;28;995;-37
2022/01/18 07:23:12;;;;;;;;;;;23.10;53.00;;;;;;5118312;28;1028;-36
2022/01/18 07:25:42;;;;;;;;;;;23.10;52.70;;;;;;5118521;28;2045;-36
2022/01/18 07:28:09;;;;;;;;;;;23.10;53.00;;;;;;5117889;28;1027;-40
2022/01/18 07:30:35;;;;;;;;;;;23.10;52.80;;;;;;5118044;28;928;-40
2022/01/18 07:33:04;;;;;;;;;;;23.20;52.80;;;;;;5117948;28;1003;-42
2022/01/18 07:35:32;;;;;;;;;;;23.20;52.80;;;;;;5118070;28;975;-40
2022/01/18 07:38:00;;;;;;;;;;;23.20;52.80;;;;;;5118827;28;976;-44
2022/01/18 07:40:27;;;;;;;;;;;23.20;52.80;;;;;;5118250;28;985;-41
2022/01/18 07:42:53;;;;;;;;;;;23.10;52.90;;;;;;5118090;28;988;-41
2022/01/18 07:45:20;;;;;;;;;;;23.20;52.80;;;;;;5116822;28;1882;-39
2022/01/18 07:47:47;;;;;;;;;;;23.20;52.80;;;;;;5117935;28;972;-38
2022/01/18 07:50:15;;;;;;;;;;;23.20;52.80;;;;;;5118314;28;995;-39
2022/01/18 07:52:42;;;;;;;;;;;23.20;52.70;;;;;;5118331;28;908;-41
2022/01/18 07:55:09;;;;;;;;;;;23.20;52.80;;;;;;5117857;28;1079;-34
2022/01/18 07:57:40;;;;;;;;;;;23.10;53.00;;;;;;5117275;28;993;-34
2022/01/18 08:00:08;;;;;;;;;;;23.10;52.90;;;;;;5117415;28;1015;-34
2022/01/18 08:02:36;;;;;;;;;;;23.10;53.00;;;;;;5117847;28;877;-34
2022/01/18 08:05:03;;;;;;;;;;;23.10;53.10;;;;;;5117329;28;1906;-34
2022/01/18 08:07:31;;;;;;;;;;;23.10;53.20;;;;;;5116764;28;1023;-34
2022/01/18 08:09:58;;;;;;;;;;;23.10;53.30;;;;;;5117106;28;984;-34
2022/01/18 08:12:25;;;;;;;;;;;23.10;53.00;;;;;;5116647;28;982;-34
2022/01/18 08:14:54;;;;;;;;;;;23.10;53.10;;;;;;5116190;28;1010;-34
2022/01/18 08:17:22;;;;;;;;;;;23.10;53.00;;;;;;5116461;28;991;-33
2022/01/18 08:19:49;;;;;;;;;;;23.20;54.10;;;;;;5117359;28;1012;-34
2022/01/18 08:22:16;;;;;;;;;;;23.20;53.00;;;;;;5116819;28;991;-34
2022/01/18 08:24:44;;;;;;;;;;;23.20;52.90;;;;;;5117873;28;1898;-34
2022/01/18 08:27:11;;;;;;;;;;;23.20;53.00;;;;;;5117279;28;972;-34
2022/01/18 08:29:37;;;;;;;;;;;23.20;53.00;;;;;;5117235;28;880;-34
2022/01/18 08:32:05;;;;;;;;;;;23.10;52.90;;;;;;5116993;28;854;-34
2022/01/18 08:34:32;;;;;;;;;;;23.20;52.90;;;;;;5117168;28;920;-34
2022/01/18 08:36:59;;;;;;;;;;;23.10;52.80;;;;;;5115929;28;1447;-34
2022/01/18 08:39:25;;;;;;;;;;;23.20;53.50;;;;;;5116865;28;924;-34
2022/01/18 08:41:54;;;;;;;;;;;23.10;53.10;;;;;;5115673;28;1485;-34
2022/01/18 08:44:21;;;;;;;;;;;23.10;53.20;;;;;;5116392;28;1982;-34
2022/01/18 08:46:48;;;;;;;;;;;23.10;53.20;;;;;;5117085;28;1013;-43
2022/01/18 08:49:15;;;;;;;;;;;23.10;53.00;;;;;;5116212;28;1008;-37
2022/01/18 08:51:42;;;;;;;;;;;23.00;53.10;;;;;;5116718;28;1820;-36
2022/01/18 08:54:08;;;;;;;;;;;23.00;53.20;;;;;;5115920;28;1023;-39
2022/01/18 08:56:35;;;;;;;;;;;23.10;53.40;;;;;;5117222;28;987;-37
2022/01/18 08:59:03;;;;;;;;;;;23.10;53.30;;;;;;5116173;28;1059;-39
2022/01/18 09:01:30;;;;;;;;;;;23.00;53.30;;;;;;5115947;28;996;-38
2022/01/18 09:03:57;;;;;;;;;;;23.00;53.20;;;;;;5116198;28;1905;-40
2022/01/18 09:06:25;;;;;;;;;;;23.00;53.50;;;;;;5116925;28;1027;-42
2022/01/18 09:08:56;;;;;;;;;;;23.00;53.40;;;;;;5115557;28;959;-41
2022/01/18 09:11:24;;;;;;;;;;;23.00;53.30;;;;;;5117258;28;1007;-40
2022/01/18 09:13:51;;;;;;;;;;;23.00;53.30;;;;;;5116980;28;983;-36
2022/01/18 09:16:20;;;;;;;;;;;23.00;53.20;;;;;;5117225;28;1007;-35
2022/01/18 09:18:47;;;;;;;;;;;23.00;53.20;;;;;;5116057;28;944;-36
2022/01/18 09:21:14;;;;;;;;;;;23.00;53.30;;;;;;5116067;28;1766;-36
2022/01/18 09:23:42;;;;;;;;;;;23.00;53.30;;;;;;5116908;28;968;-36
2022/01/18 09:26:09;;;;;;;;;;;23.00;53.20;;;;;;5116530;28;1938;-36
2022/01/18 09:28:36;;;;;;;;;;;23.00;53.20;;;;;;5116611;28;932;-36
2022/01/18 09:31:03;;;;;;;;;;;23.00;53.20;;;;;;5117020;28;962;-36
2022/01/18 09:33:31;;;;;;;;;;;23.00;53.20;;;;;;5116592;28;944;-36
2022/01/18 09:35:58;;;;;;;;;;;23.10;53.20;;;;;;5116640;28;1064;-36
2022/01/18 09:38:25;;;;;;;;;;;23.10;53.30;;;;;;5117044;28;1008;-36
2022/01/18 09:40:51;;;;;;;;;;;23.00;53.30;;;;;;5116811;28;1027;-37
2022/01/18 09:43:18;;;;;;;;;;;23.10;53.40;;;;;;5116391;28;1000;-36
2022/01/18 09:45:45;;;;;;;;;;;23.00;53.40;;;;;;5116875;28;1909;-41
2022/01/18 09:48:14;;;;;;;;;;;23.10;53.40;;;;;;5120008;28;1012;-40
2022/01/18 09:50:43;;;;;;;;;;;23.00;53.40;;;;;;5119973;28;1005;-41
2022/01/18 09:53:11;;;;;;;;;;;23.00;53.50;;;;;;5120228;28;944;-39
2022/01/18 09:55:38;;;;;;;;;;;22.90;53.70;;;;;;5120533;28;1009;-42
2022/01/18 09:58:07;;;;;;;;;;;22.90;53.50;;;;;;5118982;28;935;-42
2022/01/18 10:00:35;;;;;;;;;;;22.90;53.40;;;;;;5118611;28;996;-41
2022/01/18 10:03:01;;;;;;;;;;;22.90;53.60;;;;;;5119114;28;995;-39
2022/01/18 10:05:30;;;;;;;;;;;22.80;53.50;;;;;;5118666;28;1901;-35
2022/01/18 10:07:59;;;;;;;;;;;22.90;53.40;;;;;;5118857;28;953;-38
2022/01/18 10:10:36;;;;;;;;;;;22.90;53.40;;;;;;5118341;28;979;-45
2022/01/18 10:13:05;;;;;;;;;;;22.90;53.40;;;;;;5119411;28;999;-42
2022/01/18 10:15:32;;;;;;;;;;;22.90;53.10;;;;;;5118639;28;1067;-44
2022/01/18 10:18:06;;;;;;;;;;;22.90;53.10;;;;;;5117946;28;888;-36
2022/01/18 10:20:33;;;;;;;;;;;22.90;53.10;;;;;;5118833;28;1035;-44
2022/01/18 10:23:01;;;;;;;;;;;22.90;53.20;;;;;;5117252;28;1051;-43
2022/01/18 10:25:34;;;;;;;;;;;22.90;53.10;;;;;;5117724;28;2006;-45
2022/01/18 10:28:01;;;;;;;;;;;22.90;53.00;;;;;;5118739;28;944;-35
2022/01/18 10:30:37;;;;;;;;;;;22.90;53.10;;;;;;5118138;28;985;-45
2022/01/18 10:33:09;;;;;;;;;;;22.90;53.30;;;;;;5118879;28;961;-38
2022/01/18 10:35:36;;;;;;;;;;;22.90;53.30;;;;;;5119385;28;955;-36
2022/01/18 10:38:16;;;;;;;;;;;22.90;53.20;;;;;;5118394;28;984;-40
2022/01/18 10:40:43;;;;;;;;;;;22.90;53.20;;;;;;5119050;28;1024;-44
2022/01/18 10:43:22;;;;;;;;;;;22.80;53.20;;;;;;5118593;28;996;-43
2022/01/18 10:45:49;;;;;;;;;;;22.90;53.30;;;;;;5118534;28;1963;-41
2022/01/18 10:48:16;;;;;;;;;;;22.80;53.30;;;;;;5117485;28;908;-34
2022/01/18 10:50:43;;;;;;;;;;;22.80;53.40;;;;;;5118930;28;994;-34
2022/01/18 10:53:13;;;;;;;;;;;22.80;53.40;;;;;;5118511;28;1028;-34
2022/01/18 10:55:40;;;;;;;;;;;22.80;53.40;;;;;;5118305;28;1010;-35
2022/01/18 10:58:10;;;;;;;;;;;22.80;53.40;;;;;;5117728;28;996;-34
2022/01/18 11:00:38;;;;;;;;;;;22.70;53.50;;;;;;5118847;28;987;-34
2022/01/18 11:03:05;;;;;;;;;;;22.70;54.60;;;;;;5119055;28;947;-34
2022/01/18 11:05:33;;;;;;;;;;;22.70;53.50;;;;;;5116898;28;1980;-44
2022/01/18 11:08:02;;;;;;;;;;;22.70;53.70;;;;;;5118242;28;1007;-41
2022/01/18 11:10:33;;;;;;;;;;;22.70;53.60;;;;;;5117650;28;1296;-41
2022/01/18 11:13:04;;;;;;;;;;;22.70;53.50;;;;;;5117400;28;1034;-44
2022/01/18 11:15:32;;;;;;;;;;;22.80;53.50;;;;;;5118023;28;991;-42
2022/01/18 11:18:01;;;;;;;;;;;22.70;53.50;;;;;;5117898;28;1114;-44
2022/01/18 11:20:28;;;;;;;;;;;22.80;53.50;;;;;;5117659;28;980;-43
2022/01/18 11:22:56;;;;;;;;;;;22.70;53.50;;;;;;5117879;28;1437;-43
2022/01/18 11:25:23;;;;;;;;;;;22.80;53.40;;;;;;5117468;28;2294;-41
2022/01/18 11:27:52;;;;;;;;;;;22.80;53.20;;;;;;5117716;28;1039;-43
2022/01/18 11:30:20;;;;;;;;;;;22.80;53.20;;;;;;5117482;28;1038;-43
2022/01/18 11:32:47;;;;;;;;;;;22.80;53.20;;;;;;5116711;28;1012;-43
2022/01/18 11:35:15;;;;;;;;;;;22.80;53.30;;;;;;5117243;28;1011;-42
2022/01/18 11:37:46;;;;;;;;;;;22.80;53.20;;;;;;5116659;28;956;-44
2022/01/18 11:40:15;;;;;;;;;;;22.80;53.30;;;;;;5116774;28;1138;-45
2022/01/18 11:42:49;;;;;;;;;;;22.90;53.20;;;;;;5117546;28;1008;-45
2022/01/18 11:45:31;;;;;;;;;;;22.90;53.10;;;;;;5117688;28;1988;-43
2022/01/18 11:48:02;;;;;;;;;;;22.80;53.20;;;;;;5116905;28;947;-41
2022/01/18 11:50:29;;;;;;;;;;;22.80;53.10;;;;;;5115976;28;977;-42
2022/01/18 11:53:39;;;;;;;;;;;22.80;53.30;;;;;;5116375;28;940;-40
2022/01/18 11:56:07;;;;;;;;;;;22.90;53.30;;;;;;5115003;28;977;-38
2022/01/18 11:58:34;;;;;;;;;;;22.90;53.30;;;;;;5116462;28;1050;-38
2022/01/18 12:01:03;;;;;;;;;;;22.90;53.40;;;;;;5116426;28;951;-39
2022/01/18 12:03:30;;;;;;;;;;;22.90;53.40;;;;;;5116414;28;1032;-42
2022/01/18 12:05:58;;;;;;;;;;;22.90;53.40;;;;;;5117723;28;1981;-39
2022/01/18 12:08:50;;;;;;;;;;;23.00;53.30;;;;;;5117029;28;1120;-38
2022/01/18 12:11:32;;;;;;;;;;;23.00;53.20;;;;;;5106060;28;1517;-39
2022/01/18 12:13:59;;;;;;;;;;;22.90;53.40;;;;;;5116066;28;1021;-39
2022/01/18 12:16:29;;;;;;;;;;;22.90;53.50;;;;;;5115811;28;1787;-40
2022/01/18 12:19:00;;;;;;;;;;;22.90;53.40;;;;;;5115772;28;1061;-42
2022/01/18 12:21:28;;;;;;;;;;;22.80;53.50;;;;;;5115414;28;1012;-39
2022/01/18 12:23:56;;;;;;;;;;;22.80;53.50;;;;;;5115682;28;1030;-41
2022/01/18 12:26:31;;;;;;;;;;;22.80;53.60;;;;;;5115285;28;1997;-39
2022/01/18 12:29:20;;;;;;;;;;;22.80;53.60;;;;;;5114378;28;931;-39
2022/01/18 12:34:52;;;;;;;;;;;22.80;53.60;;;;;;5115126;28;913;-36
2022/01/18 12:37:36;;;;;;;;;;;22.80;53.50;;;;;;5116525;28;935;-36
2022/01/18 12:40:07;;;;;;;;;;;22.90;53.50;;;;;;5116124;28;963;-36
2022/01/18 12:45:22;;;;;;;;;;;22.80;53.40;;;;;;5115160;28;1905;-36
2022/01/18 12:47:51;;;;;;;;;;;22.90;53.30;;;;;;5114236;28;996;-36
2022/01/18 12:50:22;;;;;;;;;;;22.90;53.30;;;;;;5115780;28;1014;-36
2022/01/18 12:52:49;;;;;;;;;;;22.90;53.40;;;;;;5113538;28;928;-36
2022/01/18 12:55:38;;;;;;;;;;;22.90;53.40;;;;;;5114798;28;979;-37
2022/01/18 12:58:06;;;;;;;;;;;22.90;53.50;;;;;;5112147;28;1495;-36
2022/01/18 13:00:41;;;;;;;;;;;22.90;53.50;;;;;;5113792;28;945;-38
2022/01/18 13:03:07;;;;;;;;;;;22.90;53.40;;;;;;5114943;28;1004;-44
2022/01/18 13:05:37;;;;;;;;;;;22.90;53.30;;;;;;5115239;28;1894;-41
2022/01/18 13:08:04;;;;;;;;;;;22.90;53.40;;;;;;5115857;28;1021;-42
2022/01/18 13:10:35;;;;;;;;;;;23.00;53.30;;;;;;5115052;28;1015;-42
2022/01/18 13:13:02;;;;;;;;;;;23.00;53.00;;;;;;5116069;28;952;-44
2022/01/18 13:15:40;;;;;;;;;;;23.00;53.10;;;;;;5115298;28;970;-44
2022/01/18 13:23:52;;;;;;;;;;;23.10;53.20;;;;;;5117775;28;683;-44
2022/01/18 13:26:27;;;;;;;;;;;23.10;53.30;;;;;;5116734;28;1976;-43
2022/01/18 13:28:54;;;;;;;;;;;23.10;53.00;;;;;;5119978;28;1011;-43
2022/01/18 13:31:22;;;;;;;;;;;23.10;53.30;;;;;;5120710;28;920;-41
2022/01/18 13:33:50;;;;;;;;;;;23.10;53.30;;;;;;5119376;28;935;-45
2022/01/18 13:36:18;;;;;;;;;;;23.20;53.30;;;;;;5120572;28;973;-42
2022/01/18 13:38:45;;;;;;;;;;;23.20;53.20;;;;;;5119583;28;952;-40
2022/01/18 13:41:12;;;;;;;;;;;23.20;53.20;;;;;;5120292;28;1006;-43
2022/01/18 13:43:39;;;;;;;;;;;23.20;53.20;;;;;;5119195;28;1011;-44
2022/01/18 13:46:05;;;;;;;;;;;23.20;53.10;;;;;;5120669;28;1971;-44
2022/01/18 13:48:34;;;;;;;;;;;23.20;53.10;;;;;;5120755;28;998;-45
2022/01/18 13:51:08;;;;;;;;;;;23.30;52.70;;;;;;5119425;28;1018;-43
2022/01/18 13:53:36;;;;;;;;;;;23.20;53.00;;;;;;5119426;28;932;-44
2022/01/18 13:56:05;;;;;;;;;;;23.20;52.80;;;;;;5118527;28;889;-43
2022/01/18 13:58:33;;;;;;;;;;;23.20;53.00;;;;;;5119102;28;1026;-43
2022/01/18 14:01:08;;;;;;;;;;;23.20;53.00;;;;;;5120623;28;892;-44
2022/01/18 14:03:37;;;;;;;;;;;23.20;52.80;;;;;;5120440;28;1010;-43
2022/01/18 14:06:04;;;;;;;;;;;23.20;53.00;;;;;;5120009;28;1906;-44
2022/01/18 14:08:31;;;;;;;;;;;23.10;53.00;;;;;;5119383;28;933;-42
2022/01/18 14:11:07;;;;;;;;;;;23.10;53.00;;;;;;5119434;28;1016;-43
2022/01/18 14:13:37;;;;;;;;;;;23.10;53.20;;;;;;5118970;28;926;-40
2022/01/18 14:16:04;;;;;;;;;;;23.10;52.50;;;;;;5119728;28;1018;-43
2022/01/18 14:18:49;;;;;;;;;;;23.10;53.30;;;;;;5117942;28;877;-44
2022/01/18 14:21:26;;;;;;;;;;;23.10;52.90;;;;;;5118819;28;964;-40
2022/01/18 14:24:06;;;;;;;;;;;23.10;53.20;;;;;;5118891;28;1004;-43
2022/01/18 14:26:35;;;;;;;;;;;23.10;53.00;;;;;;5118072;28;1894;-44
2022/01/18 14:29:02;;;;;;;;;;;23.20;53.00;;;;;;5119334;28;939;-44
2022/01/18 14:31:29;;;;;;;;;;;23.20;53.00;;;;;;5118332;28;1004;-44
2022/01/18 14:33:56;;;;;;;;;;;23.10;53.20;;;;;;5119274;28;980;-41
2022/01/18 14:36:23;;;;;;;;;;;23.10;52.90;;;;;;5119153;28;933;-45
2022/01/18 14:39:04;;;;;;;;;;;23.10;53.20;;;;;;5119314;28;1011;-44
2022/01/18 14:41:31;;;;;;;;;;;23.10;52.70;;;;;;5119470;28;935;-42
2022/01/18 14:44:08;;;;;;;;;;;23.10;53.00;;;;;;5118682;28;948;-40
2022/01/18 14:46:56;;;;;;;;;;;23.10;53.10;;;;;;5118024;28;1975;-40
2022/01/18 14:49:23;;;;;;;;;;;23.00;53.10;;;;;;5118791;28;999;-40
2022/01/18 14:51:50;;;;;;;;;;;23.00;52.10;;;;;;5119047;28;1001;-42
2022/01/18 14:54:16;;;;;;;;;;;23.00;53.10;;;;;;5118676;28;989;-43
2022/01/18 14:56:43;;;;;;;;;;;23.00;53.10;;;;;;5108834;28;1477;-42
2022/01/18 14:59:11;;;;;;;;;;;23.00;53.20;;;;;;5014510;28;1597;-43
2022/01/18 15:01:40;;;;;;;;;;;23.00;53.10;;;;;;5014552;28;1481;-43
2022/01/18 15:04:11;;;;;;;;;;;23.00;53.10;;;;;;5014254;28;980;-41
2022/01/18 15:06:38;;;;;;;;;;;23.00;53.00;;;;;;5014653;28;1902;-44
2022/01/18 15:09:05;;;;;;;;;;;23.00;52.30;;;;;;5014653;28;920;-41
2022/01/18 15:11:35;;;;;;;;;;;23.00;53.00;;;;;;5014323;28;1039;-43
2022/01/18 15:14:01;;;;;;;;;;;23.00;52.60;;;;;;5014489;28;1016;-44
2022/01/18 15:16:29;;;;;;;;;;;23.00;52.90;;;;;;5014721;28;1002;-46
2022/01/18 15:18:56;;;;;;;;;;;23.10;53.10;;;;;;5014195;28;929;-43
2022/01/18 15:21:24;;;;;;;;;;;23.10;52.40;;;;;;5014951;28;986;-45
2022/01/18 15:23:51;;;;;;;;;;;23.00;52.80;;;;;;5015763;28;1128;-45
2022/01/18 15:26:18;;;;;;;;;;;23.00;53.00;;;;;;5015494;28;1971;-44
2022/01/18 15:28:45;;;;;;;;;;;23.00;53.00;;;;;;5015149;28;1015;-45
2022/01/18 15:31:13;;;;;;;;;;;23.10;53.10;;;;;;5014789;28;1323;-43
2022/01/18 15:33:41;;;;;;;;;;;23.00;53.10;;;;;;5015613;28;940;-44
2022/01/18 15:36:08;;;;;;;;;;;23.10;53.10;;;;;;5014988;28;887;-43
2022/01/18 15:38:35;;;;;;;;;;;23.10;53.10;;;;;;5013349;28;1015;-44
2022/01/18 15:41:02;;;;;;;;;;;23.10;53.00;;;;;;5014535;28;980;-45
2022/01/18 15:43:29;;;;;;;;;;;23.10;53.10;;;;;;5014779;28;995;-45
2022/01/18 15:45:55;;;;;;;;;;;23.00;53.10;;;;;;5013195;28;1968;-43
2022/01/18 15:48:23;;;;;;;;;;;23.10;53.10;;;;;;5014402;28;925;-41